Time;durP1;ratioP1;P1;durP2;ratioP2;P2;SDS_P1;SDS_P2;PMS_P1;PMS_P2;Temp;Humidity;BMP_temperature;BMP_pressure;BME280_temperature;BME280_humidity;BME280_pressure;Samples;Min_cycle;Max_cycle;Signal;HPM_P1;HPM_P2
2022/11/22 00:00:39;;;;;;;;;;;;;;;14.23;93.00;96126.00;5069234;28;19931;-61
2022/11/22 00:03:06;;;;;;;;;;;;;;;12.86;100.00;96128.38;5069330;28;19924;-60
2022/11/22 00:05:32;;;;;;;;;;;;;;;11.93;100.00;96126.59;5069480;28;19936;-61
2022/11/22 00:07:59;;;;;;;;;;;;;;;11.33;100.00;96122.72;5069162;28;19947;-61
2022/11/22 00:10:25;;;;;;;;;;;;;;;11.06;100.00;96122.16;5069273;28;19932;-61
2022/11/22 00:12:51;;;;;;;;;;;;;;;10.84;100.00;96123.81;5068927;28;19929;-61
2022/11/22 00:15:19;;;;;;;;;;;;;;;11.15;100.00;96122.97;5068645;28;19959;-62
2022/11/22 00:17:45;;;;;;;;;;;;;;;11.39;100.00;96120.69;5068959;28;19925;-62
2022/11/22 00:20:13;;;;;;;;;;;;;;;11.69;100.00;96106.44;5061043;28;19963;-62
2022/11/22 00:22:39;;;;;;;;;;;;;;;11.93;100.00;96113.22;5063433;28;19925;-60
2022/11/22 00:25:08;;;;;;;;;;;;;;;11.80;100.00;96115.75;5067608;28;20281;-62
2022/11/22 00:27:35;;;;;;;;;;;;;;;11.94;100.00;96125.50;5068983;28;19924;-61
2022/11/22 00:30:01;;;;;;;;;;;;;;;11.87;100.00;96120.63;5067479;28;19960;-61
2022/11/22 00:32:29;;;;;;;;;;;;;;;11.75;100.00;96147.22;5068951;28;19925;-60
2022/11/22 00:34:55;;;;;;;;;;;;;;;11.69;100.00;96145.75;5068676;28;20042;-62
2022/11/22 00:37:22;;;;;;;;;;;;;;;11.62;100.00;96143.53;5069127;28;19925;-60
2022/11/22 00:39:48;;;;;;;;;;;;;;;11.50;100.00;96131.88;5068519;28;19928;-61
2022/11/22 00:42:14;;;;;;;;;;;;;;;11.27;100.00;96113.28;5065570;28;20011;-60
2022/11/22 00:44:41;;;;;;;;;;;;;;;11.28;100.00;96122.88;5067565;28;19928;-61
2022/11/22 00:47:07;;;;;;;;;;;;;;;11.30;100.00;96133.22;5068755;28;19932;-61
2022/11/22 00:49:35;;;;;;;;;;;;;;;11.19;100.00;96130.06;5066755;28;19925;-61
2022/11/22 00:52:01;;;;;;;;;;;;;;;11.14;100.00;96122.19;5067658;28;19947;-61
2022/11/22 00:54:27;;;;;;;;;;;;;;;10.97;100.00;96118.66;5065144;28;20074;-61
2022/11/22 00:56:54;;;;;;;;;;;;;;;10.81;100.00;96118.28;5068380;28;19928;-61
2022/11/22 00:59:20;;;;;;;;;;;;;;;10.73;100.00;96109.16;5068495;28;20004;-60
2022/11/22 01:01:46;;;;;;;;;;;;;;;10.55;100.00;96101.38;5068406;28;19925;-61
2022/11/22 01:04:13;;;;;;;;;;;;;;;10.66;100.00;96100.00;5068583;28;19931;-61
2022/11/22 01:06:40;;;;;;;;;;;;;;;10.65;100.00;96109.88;5068341;28;19936;-61
2022/11/22 01:09:07;;;;;;;;;;;;;;;10.63;100.00;96106.75;5068575;28;19940;-61
2022/11/22 01:11:33;;;;;;;;;;;;;;;10.69;100.00;96116.19;5068548;28;19935;-60
2022/11/22 01:14:00;;;;;;;;;;;;;;;10.68;100.00;96116.50;5068538;28;19924;-61
2022/11/22 01:16:26;;;;;;;;;;;;;;;10.74;100.00;96125.94;5068666;28;19925;-61
2022/11/22 01:18:52;;;;;;;;;;;;;;;10.62;100.00;96123.06;5068417;28;19925;-61
2022/11/22 01:21:19;;;;;;;;;;;;;;;10.59;100.00;96129.81;5068623;28;20413;-62
2022/11/22 01:23:46;;;;;;;;;;;;;;;10.45;100.00;96131.78;5062082;28;19931;-62
2022/11/22 01:26:13;;;;;;;;;;;;;;;10.40;100.00;96125.78;5061518;28;19987;-61
2022/11/22 01:28:39;;;;;;;;;;;;;;;10.37;100.00;96129.81;5072179;28;20016;-60
2022/11/22 01:31:05;;;;;;;;;;;;;;;10.32;100.00;96143.28;5071955;28;19925;-61
2022/11/22 01:33:32;;;;;;;;;;;;;;;10.28;100.00;96144.97;5072049;28;19929;-60
2022/11/22 01:35:58;;;;;;;;;;;;;;;10.34;100.00;96138.44;5072010;28;19947;-62
2022/11/22 01:38:24;;;;;;;;;;;;;;;10.06;100.00;96128.94;5071953;28;19921;-61
2022/11/22 01:40:52;;;;;;;;;;;;;;;9.81;100.00;96129.53;5071680;28;20067;-60
2022/11/22 01:43:19;;;;;;;;;;;;;;;9.75;100.00;96132.31;5072035;28;19936;-61
2022/11/22 01:45:47;;;;;;;;;;;;;;;9.73;100.00;96125.69;5071728;28;19993;-62
2022/11/22 01:48:27;;;;;;;;;;;;;;;9.41;100.00;96120.56;5063984;28;19925;-60
2022/11/22 01:50:57;;;;;;;;;;;;;;;8.70;100.00;96115.84;5071778;28;19940;-61
2022/11/22 01:53:27;;;;;;;;;;;;;;;8.63;100.00;96122.31;5065444;28;20125;-60
2022/11/22 01:55:55;;;;;;;;;;;;;;;9.04;100.00;96126.88;5071237;28;20013;-61
2022/11/22 01:58:23;;;;;;;;;;;;;;;9.23;100.00;96119.56;5071513;28;19925;-61
2022/11/22 02:00:51;;;;;;;;;;;;;;;9.43;100.00;96132.47;5053566;28;19975;-61
2022/11/22 02:03:17;;;;;;;;;;;;;;;9.41;100.00;96131.22;5071311;28;19961;-61
2022/11/22 02:05:44;;;;;;;;;;;;;;;9.19;100.00;96129.25;5071327;28;19929;-62
2022/11/22 02:08:16;;;;;;;;;;;;;;;8.82;100.00;96122.22;5071531;28;19921;-61
2022/11/22 02:10:44;;;;;;;;;;;;;;;8.81;100.00;96117.22;5071261;28;20008;-61
2022/11/22 02:13:13;;;;;;;;;;;;;;;8.78;100.00;96117.81;5071365;28;20007;-61
2022/11/22 02:15:39;;;;;;;;;;;;;;;8.80;100.00;96112.97;5071317;28;19936;-61
2022/11/22 02:18:06;;;;;;;;;;;;;;;9.00;100.00;96116.03;5071250;28;19924;-61
2022/11/22 02:20:32;;;;;;;;;;;;;;;9.16;100.00;96113.84;5071100;28;19929;-61
2022/11/22 02:23:03;;;;;;;;;;;;;;;8.08;100.00;96113.38;5064580;28;19976;-61
2022/11/22 02:25:32;;;;;;;;;;;;;;;7.42;100.00;96105.59;5071098;28;19967;-61
2022/11/22 02:28:00;;;;;;;;;;;;;;;7.41;100.00;96100.56;5071058;28;20206;-61
2022/11/22 02:30:26;;;;;;;;;;;;;;;7.92;100.00;96095.31;5071169;28;20020;-61
2022/11/22 02:32:53;;;;;;;;;;;;;;;8.24;100.00;96097.16;5069696;28;19964;-62
2022/11/22 02:35:21;;;;;;;;;;;;;;;8.21;100.00;96087.13;5071026;28;20040;-61
2022/11/22 02:37:49;;;;;;;;;;;;;;;8.25;100.00;96093.44;5069834;28;19985;-60
2022/11/22 02:40:16;;;;;;;;;;;;;;;8.02;100.00;96089.81;5069543;28;20024;-60
2022/11/22 02:42:45;;;;;;;;;;;;;;;7.91;100.00;96083.91;5070852;28;19928;-61
2022/11/22 02:45:13;;;;;;;;;;;;;;;7.99;100.00;96085.09;5044776;28;19967;-60
2022/11/22 02:47:39;;;;;;;;;;;;;;;8.21;100.00;96098.56;5070610;28;20245;-61
2022/11/22 02:50:06;;;;;;;;;;;;;;;7.84;100.00;96101.28;5069559;28;19924;-61
2022/11/22 02:52:32;;;;;;;;;;;;;;;7.40;100.00;96105.09;5066672;28;19975;-60
2022/11/22 02:54:58;;;;;;;;;;;;;;;7.52;100.00;96102.78;5067736;28;19925;-61
2022/11/22 02:57:25;;;;;;;;;;;;;;;7.29;100.00;96101.00;5070729;28;19960;-61
2022/11/22 02:59:51;;;;;;;;;;;;;;;6.94;100.00;96106.72;5070263;28;19993;-60
2022/11/22 03:02:19;;;;;;;;;;;;;;;7.32;100.00;96100.44;5070561;28;19947;-59
2022/11/22 03:04:45;;;;;;;;;;;;;;;7.07;100.00;96106.06;5070427;28;19960;-60
2022/11/22 03:07:11;;;;;;;;;;;;;;;6.82;100.00;96109.00;5062125;28;20018;-60
2022/11/22 03:09:38;;;;;;;;;;;;;;;6.80;100.00;96105.84;5070406;28;20000;-61
2022/11/22 03:12:04;;;;;;;;;;;;;;;6.58;100.00;96106.34;5070007;28;19971;-61
2022/11/22 03:14:31;;;;;;;;;;;;;;;6.23;100.00;96111.97;5052176;28;19931;-60
2022/11/22 03:16:57;;;;;;;;;;;;;;;6.50;100.00;96125.50;5070032;28;19940;-61
2022/11/22 03:19:25;;;;;;;;;;;;;;;7.29;100.00;96122.22;5070019;28;19988;-60
2022/11/22 03:21:51;;;;;;;;;;;;;;;7.79;100.00;96122.63;5069629;28;19960;-60
2022/11/22 03:24:19;;;;;;;;;;;;;;;6.62;100.00;96131.25;5063765;28;19995;-60
2022/11/22 03:26:46;;;;;;;;;;;;;;;7.08;100.00;96134.19;5069809;28;19925;-60
2022/11/22 03:29:12;;;;;;;;;;;;;;;7.51;100.00;96133.09;5061756;28;19928;-60
2022/11/22 03:31:39;;;;;;;;;;;;;;;7.81;100.00;96147.03;5069797;28;19925;-60
2022/11/22 03:34:05;;;;;;;;;;;;;;;7.80;100.00;96129.53;5069780;28;19972;-61
2022/11/22 03:36:33;;;;;;;;;;;;;;;7.17;100.00;96137.00;5069829;28;19980;-60
2022/11/22 03:38:59;;;;;;;;;;;;;;;7.34;100.00;96142.59;5070098;28;19956;-61
2022/11/22 03:41:26;;;;;;;;;;;;;;;7.34;100.00;96145.25;5069956;28;20024;-60
2022/11/22 03:43:52;;;;;;;;;;;;;;;7.37;100.00;96150.78;5069691;28;19992;-61
2022/11/22 03:46:19;;;;;;;;;;;;;;;6.69;100.00;96152.09;5069833;28;19963;-59
2022/11/22 03:48:45;;;;;;;;;;;;;;;6.10;100.00;96147.84;5068976;28;19951;-61
2022/11/22 03:51:11;;;;;;;;;;;;;;;5.86;100.00;96158.38;5061682;28;19992;-61
2022/11/22 03:53:39;;;;;;;;;;;;;;;5.73;100.00;96151.00;5063591;28;19924;-60
2022/11/22 03:56:05;;;;;;;;;;;;;;;5.53;100.00;96161.72;5051959;28;19984;-60
2022/11/22 03:58:32;;;;;;;;;;;;;;;5.40;100.00;96152.53;5069811;28;19932;-61
2022/11/22 04:00:59;;;;;;;;;;;;;;;5.29;100.00;96158.91;5069526;28;19964;-60
2022/11/22 04:03:25;;;;;;;;;;;;;;;5.14;100.00;96153.69;5069638;28;19988;-61
2022/11/22 04:05:51;;;;;;;;;;;;;;;5.23;100.00;96154.72;5069498;28;19960;-60
2022/11/22 04:08:18;;;;;;;;;;;;;;;5.57;100.00;96154.78;5069502;28;20024;-61
2022/11/22 04:10:45;;;;;;;;;;;;;;;5.25;100.00;96149.94;5069448;28;19996;-60
2022/11/22 04:13:12;;;;;;;;;;;;;;;5.05;100.00;96149.22;5061205;28;19978;-60
2022/11/22 04:15:37;;;;;;;;;;;;;;;5.91;100.00;96152.25;5069444;28;19984;-61
2022/11/22 04:18:03;;;;;;;;;;;;;;;6.46;100.00;96164.28;5069385;28;19932;-61
2022/11/22 04:23:15;;;;;;;;;;;;;;;5.16;100.00;96172.75;5055300;28;19951;-61
2022/11/22 04:25:41;;;;;;;;;;;;;;;5.17;100.00;96184.91;5069429;28;19956;-61
2022/11/22 04:28:10;;;;;;;;;;;;;;;5.98;100.00;96176.56;5069287;28;19931;-61
2022/11/22 04:33:21;;;;;;;;;;;;;;;6.18;100.00;96181.72;5062267;28;19925;-61
2022/11/22 04:35:47;;;;;;;;;;;;;;;5.65;100.00;96179.91;5069090;28;19980;-60
2022/11/22 04:38:14;;;;;;;;;;;;;;;5.36;100.00;96177.16;5069152;28;19959;-61
2022/11/22 04:40:40;;;;;;;;;;;;;;;5.32;100.00;96181.41;5068875;28;19925;-61
2022/11/22 04:45:57;;;;;;;;;;;;;;;5.41;100.00;96170.00;5068751;28;19925;-60
2022/11/22 04:48:23;;;;;;;;;;;;;;;5.10;100.00;96168.53;5069107;28;19936;-61
2022/11/22 04:53:33;;;;;;;;;;;;;;;5.52;100.00;96164.63;5062634;28;19975;-60
2022/11/22 04:55:59;;;;;;;;;;;;;;;5.87;100.00;96159.97;5068963;28;19932;-60
2022/11/22 04:58:27;;;;;;;;;;;;;;;5.92;100.00;96164.41;5069036;28;20403;-60
2022/11/22 05:00:53;;;;;;;;;;;;;;;5.89;100.00;96154.38;5070791;28;20012;-60
2022/11/22 05:03:20;;;;;;;;;;;;;;;5.59;100.00;96151.88;5072854;28;19971;-60
2022/11/22 05:05:46;;;;;;;;;;;;;;;5.22;100.00;96149.69;5072920;28;19980;-60
2022/11/22 05:08:13;;;;;;;;;;;;;;;5.32;100.00;96160.25;5064743;28;20063;-60
2022/11/22 05:10:58;;;;;;;;;;;;;;;5.40;100.00;96160.47;5072757;28;19975;-61
2022/11/22 05:13:26;;;;;;;;;;;;;;;5.23;100.00;96156.59;5066354;28;19985;-61
2022/11/22 05:15:54;;;;;;;;;;;;;;;4.83;100.00;96153.00;5072651;28;20015;-60
2022/11/22 05:18:21;;;;;;;;;;;;;;;4.84;100.00;96161.72;5072830;28;19949;-60
2022/11/22 05:20:47;;;;;;;;;;;;;;;4.75;100.00;96169.44;5072575;28;19988;-61
2022/11/22 05:25:58;;;;;;;;;;;;;;;4.49;100.00;96161.81;5072438;28;19925;-60
2022/11/22 05:28:27;;;;;;;;;;;;;;;4.32;100.00;96162.88;5072667;28;20071;-60
2022/11/22 05:30:55;;;;;;;;;;;;;;;4.98;100.00;96165.41;5072543;28;19939;-61
2022/11/22 05:33:21;;;;;;;;;;;;;;;5.49;100.00;96173.13;5072478;28;19988;-61
2022/11/22 05:35:48;;;;;;;;;;;;;;;5.93;100.00;96166.00;5072179;28;19988;-60
2022/11/22 05:38:14;;;;;;;;;;;;;;;5.19;100.00;96171.41;5072400;28;19929;-61
2022/11/22 05:40:40;;;;;;;;;;;;;;;4.99;100.00;96166.19;5072066;28;19929;-60
2022/11/22 05:43:07;;;;;;;;;;;;;;;5.11;100.00;96169.31;5072233;28;19952;-60
2022/11/22 05:45:33;;;;;;;;;;;;;;;5.22;100.00;96170.88;5072229;28;19921;-61
2022/11/22 05:48:01;;;;;;;;;;;;;;;5.43;100.00;96167.06;5072102;28;19956;-61
2022/11/22 05:50:27;;;;;;;;;;;;;;;5.41;100.00;96175.28;5072170;28;19927;-60
2022/11/22 05:52:54;;;;;;;;;;;;;;;5.26;100.00;96174.56;5065750;28;19992;-60
2022/11/22 05:55:20;;;;;;;;;;;;;;;5.25;100.00;96175.63;5071956;28;19963;-61
2022/11/22 05:57:47;;;;;;;;;;;;;;;5.45;100.00;96175.50;5071755;28;19952;-60
2022/11/22 06:00:13;;;;;;;;;;;;;;;5.31;100.00;96180.63;5062133;28;19956;-60
2022/11/22 06:02:40;;;;;;;;;;;;;;;5.15;100.00;96186.22;5070600;28;19984;-61
2022/11/22 06:05:08;;;;;;;;;;;;;;;5.16;100.00;96193.91;5071658;28;20020;-60
2022/11/22 06:07:34;;;;;;;;;;;;;;;5.10;100.00;96195.00;5071755;28;20004;-60
2022/11/22 06:10:00;;;;;;;;;;;;;;;5.41;100.00;96198.31;5070395;28;19980;-60
2022/11/22 06:12:27;;;;;;;;;;;;;;;5.40;100.00;96199.38;5068895;28;19929;-61
2022/11/22 06:14:53;;;;;;;;;;;;;;;5.18;100.00;96207.66;5071393;28;19948;-60
2022/11/22 06:17:19;;;;;;;;;;;;;;;5.13;100.00;96202.38;5068436;28;20052;-60
2022/11/22 06:19:46;;;;;;;;;;;;;;;5.18;100.00;96207.66;5068708;28;19921;-60
2022/11/22 06:22:14;;;;;;;;;;;;;;;5.36;100.00;96214.19;5060777;28;19996;-61
2022/11/22 06:24:41;;;;;;;;;;;;;;;5.40;100.00;96205.47;5049125;28;19924;-60
2022/11/22 06:27:07;;;;;;;;;;;;;;;5.24;100.00;96206.56;5068739;28;19932;-61
2022/11/22 06:29:34;;;;;;;;;;;;;;;5.18;100.00;96210.31;5068994;28;19956;-60
2022/11/22 06:32:00;;;;;;;;;;;;;;;4.75;100.00;96205.66;5070085;28;19985;-61
2022/11/22 06:34:27;;;;;;;;;;;;;;;4.49;100.00;96204.09;5068764;28;19924;-61
2022/11/22 06:36:53;;;;;;;;;;;;;;;4.27;100.00;96205.16;5053031;28;19944;-61
2022/11/22 06:39:41;;;;;;;;;;;;;;;4.43;100.00;96211.22;5071041;28;19921;-60
2022/11/22 06:42:08;;;;;;;;;;;;;;;4.88;100.00;96215.69;5067308;28;19996;-61
2022/11/22 06:44:35;;;;;;;;;;;;;;;5.29;100.00;96203.91;5070848;28;19935;-60
2022/11/22 06:47:01;;;;;;;;;;;;;;;5.08;100.00;96210.31;5070525;28;19929;-60
2022/11/22 06:49:27;;;;;;;;;;;;;;;5.33;100.00;96212.91;5052835;28;19983;-60
2022/11/22 06:51:54;;;;;;;;;;;;;;;5.73;100.00;96213.75;5070547;28;20626;-61
2022/11/22 06:54:20;;;;;;;;;;;;;;;6.14;100.00;96211.69;5064549;28;19956;-60
2022/11/22 06:56:46;;;;;;;;;;;;;;;6.09;100.00;96217.84;5070554;28;19988;-61
2022/11/22 06:59:14;;;;;;;;;;;;;;;6.36;100.00;96227.97;5062617;28;19924;-61
2022/11/22 07:01:40;;;;;;;;;;;;;;;6.68;100.00;96236.22;5070496;28;19952;-61
2022/11/22 07:04:07;;;;;;;;;;;;;;;6.95;100.00;96233.84;5070485;28;19925;-60
2022/11/22 07:06:34;;;;;;;;;;;;;;;6.70;100.00;96235.91;5070349;28;19983;-60
2022/11/22 07:09:01;;;;;;;;;;;;;;;6.56;100.00;96237.66;5070243;28;19928;-61
2022/11/22 07:11:28;;;;;;;;;;;;;;;6.36;100.00;96244.69;5070291;28;20066;-61
2022/11/22 07:13:55;;;;;;;;;;;;;;;6.01;100.00;96258.16;5070098;28;19988;-61
2022/11/22 07:16:23;;;;;;;;;;;;;;;5.71;100.00;96263.56;5070359;28;19963;-60
2022/11/22 07:18:50;;;;;;;;;;;;;;;5.59;100.00;96266.53;5052221;28;19952;-60
2022/11/22 07:21:17;;;;;;;;;;;;;;;5.77;100.00;96262.47;5069849;28;19980;-61
2022/11/22 07:23:45;;;;;;;;;;;;;;;5.72;100.00;96265.16;5062684;28;19997;-62
2022/11/22 07:26:11;;;;;;;;;;;;;;;5.37;100.00;96258.16;5070061;28;19988;-61
2022/11/22 07:28:38;;;;;;;;;;;;;;;5.00;100.00;96263.78;5070134;28;19959;-61
2022/11/22 07:31:05;;;;;;;;;;;;;;;4.76;100.00;96265.41;5069740;28;19959;-60
2022/11/22 07:33:33;;;;;;;;;;;;;;;5.50;100.00;96267.38;5069992;28;20004;-60
2022/11/22 07:36:03;;;;;;;;;;;;;;;5.49;100.00;96276.38;5069820;28;19952;-60
2022/11/22 07:38:29;;;;;;;;;;;;;;;5.56;100.00;96269.72;5069860;28;19952;-60
2022/11/22 07:40:56;;;;;;;;;;;;;;;5.68;100.00;96272.84;5069576;28;19948;-60
2022/11/22 07:43:22;;;;;;;;;;;;;;;5.89;100.00;96271.72;5069676;28;19947;-60
2022/11/22 07:45:48;;;;;;;;;;;;;;;6.19;100.00;96268.09;5068879;28;19939;-61
2022/11/22 07:48:15;;;;;;;;;;;;;;;6.22;100.00;96280.81;5069564;28;20083;-61
2022/11/22 07:50:42;;;;;;;;;;;;;;;5.79;100.00;96278.88;5069485;28;19987;-60
2022/11/22 07:53:09;;;;;;;;;;;;;;;5.64;100.00;96286.91;5063384;28;19988;-60
2022/11/22 07:55:36;;;;;;;;;;;;;;;5.48;100.00;96286.16;5069641;28;20015;-60
2022/11/22 07:58:03;;;;;;;;;;;;;;;5.61;100.00;96290.88;5069253;28;20111;-60
2022/11/22 08:00:29;;;;;;;;;;;;;;;5.46;100.00;96296.22;5069300;28;19925;-60
2022/11/22 08:02:57;;;;;;;;;;;;;;;5.56;100.00;96309.44;5069302;28;19920;-60
2022/11/22 08:05:23;;;;;;;;;;;;;;;6.17;100.00;96310.00;5069311;28;19956;-60
2022/11/22 08:07:51;;;;;;;;;;;;;;;6.36;100.00;96304.84;5069136;28;20482;-60
2022/11/22 08:10:18;;;;;;;;;;;;;;;6.13;100.00;96308.19;5069325;28;19951;-60
2022/11/22 08:12:45;;;;;;;;;;;;;;;6.14;100.00;96315.84;5069349;28;20023;-61
2022/11/22 08:15:12;;;;;;;;;;;;;;;5.53;100.00;96312.63;5069197;28;19984;-60
2022/11/22 08:17:39;;;;;;;;;;;;;;;5.83;100.00;96324.97;5069231;28;19967;-60
2022/11/22 08:20:07;;;;;;;;;;;;;;;6.41;100.00;96316.22;5069416;28;19936;-61
2022/11/22 08:22:34;;;;;;;;;;;;;;;5.73;100.00;96319.69;5064699;28;19929;-60
2022/11/22 08:25:02;;;;;;;;;;;;;;;5.94;100.00;96321.25;5067276;28;19967;-60
2022/11/22 08:27:28;;;;;;;;;;;;;;;6.26;100.00;96324.25;5069243;28;19985;-60
2022/11/22 08:29:54;;;;;;;;;;;;;;;6.61;100.00;96327.75;5069058;28;19972;-60
2022/11/22 08:32:21;;;;;;;;;;;;;;;6.46;100.00;96332.13;5069039;28;19952;-60
2022/11/22 08:34:47;;;;;;;;;;;;;;;6.09;100.00;96334.44;5068717;28;19931;-60
2022/11/22 08:37:13;;;;;;;;;;;;;;;5.84;100.00;96343.25;5061048;28;19932;-60
2022/11/22 08:39:40;;;;;;;;;;;;;;;5.89;100.00;96353.84;5068770;28;19948;-60
2022/11/22 08:42:07;;;;;;;;;;;;;;;5.63;100.00;96349.66;5068815;28;20289;-60
2022/11/22 08:44:34;;;;;;;;;;;;;;;5.58;100.00;96349.69;5069118;28;20052;-60
2022/11/22 08:47:00;;;;;;;;;;;;;;;5.26;100.00;96344.69;5068784;28;19987;-60
2022/11/22 08:49:27;;;;;;;;;;;;;;;5.11;100.00;96360.59;5068954;28;19941;-59
2022/11/22 08:51:53;;;;;;;;;;;;;;;5.21;100.00;96365.09;5068906;28;19932;-61
2022/11/22 08:54:19;;;;;;;;;;;;;;;5.53;100.00;96372.72;5062778;28;19947;-61
2022/11/22 08:56:46;;;;;;;;;;;;;;;5.71;100.00;96374.81;5068709;28;19992;-60
2022/11/22 08:59:13;;;;;;;;;;;;;;;6.08;100.00;96377.88;5068954;28;19925;-61
2022/11/22 09:01:40;;;;;;;;;;;;;;;6.03;100.00;96375.28;5068764;28;20289;-61
2022/11/22 09:04:06;;;;;;;;;;;;;;;6.07;100.00;96378.94;5068770;28;19983;-61
2022/11/22 09:06:32;;;;;;;;;;;;;;;6.07;100.00;96380.78;5068862;28;19932;-61
2022/11/22 09:08:59;;;;;;;;;;;;;;;5.62;100.00;96381.72;5068580;28;20121;-61
2022/11/22 09:11:25;;;;;;;;;;;;;;;5.65;100.00;96383.81;5068767;28;20436;-61
2022/11/22 09:13:51;;;;;;;;;;;;;;;5.79;100.00;96376.88;5068467;28;19975;-60
2022/11/22 09:16:19;;;;;;;;;;;;;;;5.88;100.00;96380.63;5068594;28;19959;-60
2022/11/22 09:18:46;;;;;;;;;;;;;;;6.23;100.00;96377.81;5068573;28;19968;-61
2022/11/22 09:21:15;;;;;;;;;;;;;;;6.07;100.00;96386.09;5060282;28;19988;-60
2022/11/22 09:23:42;;;;;;;;;;;;;;;5.87;100.00;96385.13;5061894;28;19935;-61
2022/11/22 09:26:09;;;;;;;;;;;;;;;5.90;100.00;96389.09;5050590;28;19960;-61
2022/11/22 09:28:36;;;;;;;;;;;;;;;6.05;100.00;96386.38;5068539;28;19929;-60
2022/11/22 09:31:03;;;;;;;;;;;;;;;6.00;100.00;96383.75;5068500;28;19980;-61
2022/11/22 09:33:32;;;;;;;;;;;;;;;6.08;100.00;96391.13;5068710;28;19924;-60
2022/11/22 09:36:02;;;;;;;;;;;;;;;5.74;100.00;96387.50;5050514;28;19978;-60
2022/11/22 09:38:28;;;;;;;;;;;;;;;5.53;100.00;96397.34;5068271;28;20015;-61
2022/11/22 09:40:54;;;;;;;;;;;;;;;5.55;100.00;96392.56;5068396;28;19960;-59
2022/11/22 09:43:27;;;;;;;;;;;;;;;5.62;100.00;96392.31;5068899;28;20011;-61
2022/11/22 09:46:03;;;;;;;;;;;;;;;5.69;100.00;96398.13;5050369;28;19980;-60
2022/11/22 09:48:41;;;;;;;;;;;;;;;5.47;100.00;96400.28;5071204;28;19967;-60
2022/11/22 09:51:10;;;;;;;;;;;;;;;5.16;100.00;96400.31;5071959;28;19982;-62
2022/11/22 09:53:40;;;;;;;;;;;;;;;5.13;100.00;96411.41;5065490;28;20014;-62
2022/11/22 09:56:10;;;;;;;;;;;;;;;5.28;100.00;96414.06;5071741;28;19920;-61
2022/11/22 09:58:39;;;;;;;;;;;;;;;5.21;100.00;96408.22;5071964;28;19987;-61
2022/11/22 10:01:08;;;;;;;;;;;;;;;5.16;100.00;96405.59;5071794;28;19931;-61
2022/11/22 10:03:42;;;;;;;;;;;;;;;5.19;100.00;96409.56;5071890;28;19984;-61
2022/11/22 10:06:12;;;;;;;;;;;;;;;5.23;100.00;96406.09;5071641;28;19929;-60
2022/11/22 10:08:41;;;;;;;;;;;;;;;5.47;100.00;96408.22;5071829;28;20008;-61
2022/11/22 10:11:13;;;;;;;;;;;;;;;5.74;100.00;96411.34;5071702;28;19971;-60
2022/11/22 10:13:43;;;;;;;;;;;;;;;5.71;100.00;96410.03;5071270;28;20443;-60
2022/11/22 10:16:13;;;;;;;;;;;;;;;5.73;100.00;96415.03;5071119;28;20039;-61
2022/11/22 10:18:43;;;;;;;;;;;;;;;5.74;100.00;96419.28;5071217;28;19924;-61
2022/11/22 10:21:10;;;;;;;;;;;;;;;5.67;100.00;96411.63;5070966;28;20039;-61
2022/11/22 10:23:37;;;;;;;;;;;;;;;5.71;100.00;96414.53;5064636;28;19924;-61
2022/11/22 10:26:05;;;;;;;;;;;;;;;5.66;100.00;96412.69;5070908;28;19924;-61
2022/11/22 10:28:34;;;;;;;;;;;;;;;6.02;100.00;96420.56;5071190;28;19992;-60
2022/11/22 10:31:02;;;;;;;;;;;;;;;6.17;100.00;96408.06;5052933;28;19925;-60
2022/11/22 10:33:33;;;;;;;;;;;;;;;6.45;100.00;96401.31;5070972;28;19956;-60
2022/11/22 10:36:07;;;;;;;;;;;;;;;6.04;100.00;96410.47;5070656;28;19936;-61
2022/11/22 10:38:46;;;;;;;;;;;;;;;5.66;100.00;96414.56;5070732;28;20013;-60
2022/11/22 10:41:21;;;;;;;;;;;;;;;5.72;100.00;96424.06;5062241;28;19960;-61
2022/11/22 10:43:51;;;;;;;;;;;;;;;5.63;100.00;96423.03;5070543;28;19984;-61
2022/11/22 10:46:21;;;;;;;;;;;;;;;5.43;100.00;96429.94;5070571;28;19992;-61
2022/11/22 10:48:52;;;;;;;;;;;;;;;5.53;100.00;96429.13;5052617;28;19924;-60
2022/11/22 10:51:25;;;;;;;;;;;;;;;5.62;100.00;96432.03;5070518;28;20069;-60
2022/11/22 10:53:59;;;;;;;;;;;;;;;5.88;100.00;96429.06;5063956;28;19984;-61
2022/11/22 10:56:30;;;;;;;;;;;;;;;5.87;100.00;96426.72;5070405;28;19981;-61
2022/11/22 10:59:02;;;;;;;;;;;;;;;5.65;100.00;96434.13;5070014;28;19981;-61
2022/11/22 11:01:32;;;;;;;;;;;;;;;5.64;100.00;96437.84;5068854;28;19921;-60
2022/11/22 11:03:59;;;;;;;;;;;;;;;5.66;100.00;96430.44;5068645;28;19935;-60
2022/11/22 11:06:33;;;;;;;;;;;;;;;5.59;100.00;96427.25;5067661;28;19925;-61
2022/11/22 11:09:02;;;;;;;;;;;;;;;5.51;100.00;96433.88;5066632;28;19924;-61
2022/11/22 11:11:30;;;;;;;;;;;;;;;5.60;100.00;96434.94;5080399;28;19992;-61
2022/11/22 11:13:58;;;;;;;;;;;;;;;5.76;100.00;96433.84;5046439;28;19929;-61
2022/11/22 11:16:26;;;;;;;;;;;;;;;5.71;100.00;96435.72;5067284;28;19924;-60
2022/11/22 11:18:55;;;;;;;;;;;;;;;5.82;100.00;96439.91;5066539;28;19925;-61
2022/11/22 11:21:21;;;;;;;;;;;;;;;5.86;100.00;96439.16;5065720;28;19984;-60
2022/11/22 11:23:49;;;;;;;;;;;;;;;6.19;100.00;96427.13;5064657;28;19951;-61
2022/11/22 11:26:18;;;;;;;;;;;;;;;5.98;100.00;96429.06;5067713;28;19956;-61
2022/11/22 11:28:45;;;;;;;;;;;;;;;6.03;100.00;96422.97;5067523;28;19932;-60
2022/11/22 11:31:12;;;;;;;;;;;;;;;5.97;100.00;96421.41;5067912;28;19952;-60
2022/11/22 11:33:39;;;;;;;;;;;;;;;5.92;100.00;96413.44;5067044;28;19982;-60
2022/11/22 11:36:07;;;;;;;;;;;;;;;5.98;100.00;96415.00;5063080;28;20776;-60
2022/11/22 11:38:35;;;;;;;;;;;;;;;6.02;100.00;96413.41;5063198;28;19971;-60
2022/11/22 11:41:20;;;;;;;;;;;;;;;6.14;100.00;96397.22;5064428;28;19980;-61
2022/11/22 11:43:47;;;;;;;;;;;;;;;6.11;100.00;96395.91;5066864;28;19960;-60
2022/11/22 11:46:17;;;;;;;;;;;;;;;6.12;100.00;96392.19;5067272;28;19988;-60
2022/11/22 11:48:44;;;;;;;;;;;;;;;6.16;100.00;96403.81;5067966;28;19984;-60
2022/11/22 11:51:16;;;;;;;;;;;;;;;6.15;100.00;96401.47;5067982;28;19951;-61
2022/11/22 11:53:43;;;;;;;;;;;;;;;6.28;100.00;96396.34;5062299;28;19988;-60
2022/11/22 11:56:21;;;;;;;;;;;;;;;6.00;100.00;96390.91;5069185;28;19928;-60
2022/11/22 11:58:51;;;;;;;;;;;;;;;6.14;100.00;96395.34;5069268;28;19939;-60
2022/11/22 12:01:19;;;;;;;;;;;;;;;6.22;100.00;96391.34;5061432;28;19956;-61
2022/11/22 12:03:50;;;;;;;;;;;;;;;6.42;100.00;96393.91;5068833;28;19951;-60
2022/11/22 12:06:17;;;;;;;;;;;;;;;6.64;100.00;96393.50;5061252;28;20137;-60
2022/11/22 12:08:43;;;;;;;;;;;;;;;6.53;100.00;96398.88;5068749;28;19964;-60
2022/11/22 12:11:11;;;;;;;;;;;;;;;6.47;100.00;96393.88;5068327;28;19920;-61
2022/11/22 12:13:42;;;;;;;;;;;;;;;6.46;100.00;96397.59;5068880;28;19925;-61
2022/11/22 12:16:13;;;;;;;;;;;;;;;6.58;100.00;96392.75;5068794;28;19956;-61
2022/11/22 12:18:43;;;;;;;;;;;;;;;6.64;100.00;96389.00;5068861;28;19984;-60
2022/11/22 12:21:17;;;;;;;;;;;;;;;6.64;100.00;96382.91;5068907;28;19932;-60
2022/11/22 12:23:47;;;;;;;;;;;;;;;6.72;100.00;96384.97;5062138;28;20020;-61
2022/11/22 12:26:14;;;;;;;;;;;;;;;6.67;100.00;96385.00;5060769;28;19967;-61
2022/11/22 12:28:42;;;;;;;;;;;;;;;6.38;100.00;96380.41;5068821;28;19952;-61
2022/11/22 12:31:13;;;;;;;;;;;;;;;6.44;100.00;96379.31;5068934;28;19968;-61
2022/11/22 12:33:41;;;;;;;;;;;;;;;6.55;100.00;96387.22;5068778;28;19946;-62
2022/11/22 12:36:12;;;;;;;;;;;;;;;6.48;100.00;96388.31;5068603;28;20003;-61
2022/11/22 12:38:40;;;;;;;;;;;;;;;6.50;100.00;96382.72;5068817;28;20403;-61
2022/11/22 12:41:09;;;;;;;;;;;;;;;6.50;100.00;96367.59;5068671;28;19959;-60
2022/11/22 12:43:37;;;;;;;;;;;;;;;6.60;100.00;96371.25;5068689;28;19925;-61
2022/11/22 12:46:08;;;;;;;;;;;;;;;6.59;100.00;96369.69;5068454;28;19975;-60
2022/11/22 12:48:37;;;;;;;;;;;;;;;6.53;100.00;96375.00;5068352;28;19988;-62
2022/11/22 12:51:07;;;;;;;;;;;;;;;6.49;100.00;96373.19;5068484;28;19941;-61
2022/11/22 12:53:35;;;;;;;;;;;;;;;6.43;100.00;96375.09;5068306;28;19929;-62
2022/11/22 12:56:06;;;;;;;;;;;;;;;6.41;100.00;96369.25;5068341;28;20005;-61
2022/11/22 12:58:37;;;;;;;;;;;;;;;6.45;100.00;96375.59;5068460;28;19984;-62
2022/11/22 13:01:09;;;;;;;;;;;;;;;6.66;100.00;96381.56;5068503;28;19984;-61